sensor_id;sensor_type;location;lat;lon;timestamp;pressure;altitude;pressure_sealevel;temperature;humidity
8756;BME280;4414;42.670;23.228;2022-08-03T00:02:12;44847.13;;;-137.01;68.71
8756;BME280;4414;42.670;23.228;2022-08-03T00:04:39;44870.06;;;-137.01;68.67
8756;BME280;4414;42.670;23.228;2022-08-03T00:07:07;44866.25;;;-137.01;68.43
8756;BME280;4414;42.670;23.228;2022-08-03T00:09:34;44881.56;;;-137.01;68.20
8756;BME280;4414;42.670;23.228;2022-08-03T00:12:00;44831.81;;;-137.01;67.96
8756;BME280;4414;42.670;23.228;2022-08-03T00:14:27;44850.94;;;-137.01;67.28
8756;BME280;4414;42.670;23.228;2022-08-03T00:16:54;44841.38;;;-137.01;67.26
8756;BME280;4414;42.670;23.228;2022-08-03T00:19:22;44841.38;;;-137.01;66.86
8756;BME280;4414;42.670;23.228;2022-08-03T00:21:49;44864.34;;;-137.01;66.89
8756;BME280;4414;42.670;23.228;2022-08-03T00:24:17;44864.34;;;-137.01;66.64
8756;BME280;4414;42.670;23.228;2022-08-03T00:26:43;44866.25;;;-137.01;66.80
8756;BME280;4414;42.670;23.228;2022-08-03T00:29:10;44860.50;;;-137.01;66.94
8756;BME280;4414;42.670;23.228;2022-08-03T00:31:37;44852.88;;;-137.01;67.04
8756;BME280;4414;42.670;23.228;2022-08-03T00:34:04;44849.03;;;-137.01;66.88
8756;BME280;4414;42.670;23.228;2022-08-03T00:36:30;44870.06;;;-137.01;67.08
8756;BME280;4414;42.670;23.228;2022-08-03T00:38:57;44841.38;;;-137.01;67.70
8756;BME280;4414;42.670;23.228;2022-08-03T00:41:25;44854.78;;;-137.01;68.05
8756;BME280;4414;42.670;23.228;2022-08-03T00:43:52;44854.78;;;-137.01;68.19
8756;BME280;4414;42.670;23.228;2022-08-03T00:46:18;44864.34;;;-137.01;68.11
8756;BME280;4414;42.670;23.228;2022-08-03T00:48:46;44852.88;;;-137.01;68.94
8756;BME280;4414;42.670;23.228;2022-08-03T00:51:13;44852.88;;;-137.01;68.94
8756;BME280;4414;42.670;23.228;2022-08-03T00:53:40;44854.78;;;-137.01;69.13
8756;BME280;4414;42.670;23.228;2022-08-03T00:56:07;44854.78;;;-137.01;69.41
8756;BME280;4414;42.670;23.228;2022-08-03T00:58:35;44841.38;;;-137.01;69.91
8756;BME280;4414;42.670;23.228;2022-08-03T01:01:01;44883.47;;;-137.01;70.06
8756;BME280;4414;42.670;23.228;2022-08-03T01:03:31;44858.59;;;-137.01;70.95
8756;BME280;4414;42.670;23.228;2022-08-03T01:06:06;44841.38;;;-137.01;71.08
8756;BME280;4414;42.670;23.228;2022-08-03T01:08:40;44854.78;;;-137.01;71.50
8756;BME280;4414;42.670;23.228;2022-08-03T01:11:16;44862.44;;;-137.01;71.85
8756;BME280;4414;42.670;23.228;2022-08-03T01:13:52;44868.16;;;-137.01;72.51
8756;BME280;4414;42.670;23.228;2022-08-03T01:16:27;44858.59;;;-137.01;73.23
8756;BME280;4414;42.670;23.228;2022-08-03T01:19:01;44854.78;;;-137.01;75.85
8756;BME280;4414;42.670;23.228;2022-08-03T01:21:32;44849.03;;;-137.01;76.73
8756;BME280;4414;42.670;23.228;2022-08-03T01:24:06;44837.56;;;-137.01;77.48
8756;BME280;4414;42.670;23.228;2022-08-03T01:27:01;44868.16;;;-137.01;78.52
8756;BME280;4414;42.670;23.228;2022-08-03T01:32:38;44843.28;;;-137.01;77.00
8756;BME280;4414;42.670;23.228;2022-08-03T01:35:09;44864.34;;;-137.01;76.69
8756;BME280;4414;42.670;23.228;2022-08-03T01:37:40;44849.03;;;-137.01;76.69
8756;BME280;4414;42.670;23.228;2022-08-03T01:40:10;44873.91;;;-137.01;76.83
8756;BME280;4414;42.670;23.228;2022-08-03T01:42:40;44850.94;;;-137.01;76.58
8756;BME280;4414;42.670;23.228;2022-08-03T01:45:11;44847.13;;;-137.01;76.20
8756;BME280;4414;42.670;23.228;2022-08-03T01:47:40;44843.28;;;-137.01;76.26
8756;BME280;4414;42.670;23.228;2022-08-03T01:50:08;44841.38;;;-137.01;76.20
8756;BME280;4414;42.670;23.228;2022-08-03T01:52:38;44849.03;;;-137.01;76.52
8756;BME280;4414;42.670;23.228;2022-08-03T01:55:07;44852.88;;;-137.01;76.28
8756;BME280;4414;42.670;23.228;2022-08-03T01:57:37;44849.03;;;-137.01;76.57
8756;BME280;4414;42.670;23.228;2022-08-03T02:00:05;44828.00;;;-137.01;77.35
8756;BME280;4414;42.670;23.228;2022-08-03T02:02:36;44875.81;;;-137.01;77.67
8756;BME280;4414;42.670;23.228;2022-08-03T02:05:06;44833.72;;;-137.01;77.75
8756;BME280;4414;42.670;23.228;2022-08-03T02:07:35;44850.94;;;-137.01;77.42
8756;BME280;4414;42.670;23.228;2022-08-03T02:10:05;44841.38;;;-137.01;77.93
8756;BME280;4414;42.670;23.228;2022-08-03T02:12:33;44849.03;;;-137.01;78.09
8756;BME280;4414;42.670;23.228;2022-08-03T02:15:03;44875.81;;;-137.01;78.58
8756;BME280;4414;42.670;23.228;2022-08-03T02:17:32;44858.59;;;-137.01;78.86
8756;BME280;4414;42.670;23.228;2022-08-03T02:20:01;44856.69;;;-137.01;78.53
8756;BME280;4414;42.670;23.228;2022-08-03T02:22:29;44845.22;;;-137.01;78.47
8756;BME280;4414;42.670;23.228;2022-08-03T02:24:57;44829.91;;;-137.01;79.42
8756;BME280;4414;42.670;23.228;2022-08-03T02:27:25;44868.16;;;-137.01;79.67
8756;BME280;4414;42.670;23.228;2022-08-03T02:29:55;44866.25;;;-137.01;79.59
8756;BME280;4414;42.670;23.228;2022-08-03T02:32:28;44860.50;;;-137.01;80.03
8756;BME280;4414;42.670;23.228;2022-08-03T02:34:57;44847.13;;;-137.01;79.62
8756;BME280;4414;42.670;23.228;2022-08-03T02:37:30;44845.22;;;-137.01;79.73
8756;BME280;4414;42.670;23.228;2022-08-03T02:40:00;44826.09;;;-137.01;80.17
8756;BME280;4414;42.670;23.228;2022-08-03T02:42:28;44858.59;;;-137.01;80.38
8756;BME280;4414;42.670;23.228;2022-08-03T02:44:58;44868.16;;;-137.01;80.21
8756;BME280;4414;42.670;23.228;2022-08-03T02:47:27;44826.09;;;-137.01;79.69
8756;BME280;4414;42.670;23.228;2022-08-03T02:49:56;44847.13;;;-137.01;79.96
8756;BME280;4414;42.670;23.228;2022-08-03T02:52:27;44829.91;;;-137.01;79.56
8756;BME280;4414;42.670;23.228;2022-08-03T02:54:58;44831.81;;;-137.01;79.92
8756;BME280;4414;42.670;23.228;2022-08-03T02:57:27;44841.38;;;-137.01;80.04
8756;BME280;4414;42.670;23.228;2022-08-03T02:59:54;44826.09;;;-137.01;79.90
8756;BME280;4414;42.670;23.228;2022-08-03T03:02:23;44864.34;;;-137.01;79.72
8756;BME280;4414;42.670;23.228;2022-08-03T03:04:51;44868.16;;;-137.01;79.67
8756;BME280;4414;42.670;23.228;2022-08-03T03:07:19;44854.78;;;-137.01;79.13
8756;BME280;4414;42.670;23.228;2022-08-03T03:09:48;44847.13;;;-137.01;78.84
8756;BME280;4414;42.670;23.228;2022-08-03T03:12:16;44841.38;;;-137.01;79.17
8756;BME280;4414;42.670;23.228;2022-08-03T03:14:43;44843.28;;;-137.01;78.85
8756;BME280;4414;42.670;23.228;2022-08-03T03:17:11;44839.47;;;-137.01;80.31
8756;BME280;4414;42.670;23.228;2022-08-03T03:19:39;44835.66;;;-137.01;81.48
8756;BME280;4414;42.670;23.228;2022-08-03T03:22:07;44854.78;;;-137.01;82.23
8756;BME280;4414;42.670;23.228;2022-08-03T03:24:35;44847.13;;;-137.01;83.02
8756;BME280;4414;42.670;23.228;2022-08-03T03:27:04;44875.81;;;-137.01;82.93
8756;BME280;4414;42.670;23.228;2022-08-03T03:29:32;44845.22;;;-137.01;81.77
8756;BME280;4414;42.670;23.228;2022-08-03T03:31:59;44856.69;;;-137.01;82.11
8756;BME280;4414;42.670;23.228;2022-08-03T03:34:28;44866.25;;;-137.01;82.78
8756;BME280;4414;42.670;23.228;2022-08-03T03:36:55;44841.38;;;-137.01;83.50
8756;BME280;4414;42.670;23.228;2022-08-03T03:39:21;44852.88;;;-137.01;84.28
8756;BME280;4414;42.670;23.228;2022-08-03T03:41:48;44862.44;;;-137.01;84.72
8756;BME280;4414;42.670;23.228;2022-08-03T03:44:16;44826.09;;;-137.01;84.92
8756;BME280;4414;42.670;23.228;2022-08-03T03:46:43;44829.91;;;-137.01;85.50
8756;BME280;4414;42.670;23.228;2022-08-03T03:49:10;44860.50;;;-137.01;85.66
8756;BME280;4414;42.670;23.228;2022-08-03T03:51:37;44862.44;;;-137.01;85.52
8756;BME280;4414;42.670;23.228;2022-08-03T03:54:04;44872.00;;;-137.01;85.95
8756;BME280;4414;42.670;23.228;2022-08-03T03:56:32;44839.47;;;-137.01;85.59
8756;BME280;4414;42.670;23.228;2022-08-03T03:58:59;44875.81;;;-137.01;85.12
8756;BME280;4414;42.670;23.228;2022-08-03T04:01:27;44858.59;;;-137.01;84.65
8756;BME280;4414;42.670;23.228;2022-08-03T04:03:54;44845.22;;;-137.01;84.23
8756;BME280;4414;42.670;23.228;2022-08-03T04:06:21;44845.22;;;-137.01;82.56
8756;BME280;4414;42.670;23.228;2022-08-03T04:09:06;44845.22;;;-137.01;81.45
8756;BME280;4414;42.670;23.228;2022-08-03T04:11:53;44862.44;;;-137.01;81.77
8756;BME280;4414;42.670;23.228;2022-08-03T04:14:23;44866.25;;;-137.01;82.02
8756;BME280;4414;42.670;23.228;2022-08-03T04:16:55;44860.50;;;-137.01;82.30
8756;BME280;4414;42.670;23.228;2022-08-03T04:19:27;44866.25;;;-137.01;82.47
8756;BME280;4414;42.670;23.228;2022-08-03T04:21:59;44872.00;;;-137.01;81.57
8756;BME280;4414;42.670;23.228;2022-08-03T04:24:32;44850.94;;;-137.01;79.07
8756;BME280;4414;42.670;23.228;2022-08-03T04:27:01;44885.38;;;-137.01;76.92
8756;BME280;4414;42.670;23.228;2022-08-03T04:29:32;44856.69;;;-137.01;76.78
8756;BME280;4414;42.670;23.228;2022-08-03T04:32:04;44852.88;;;-137.01;75.88
8756;BME280;4414;42.670;23.228;2022-08-03T04:34:32;44877.72;;;-137.01;77.55
8756;BME280;4414;42.670;23.228;2022-08-03T04:37:01;44872.00;;;-137.01;77.15
8756;BME280;4414;42.670;23.228;2022-08-03T04:39:30;44852.88;;;-137.01;77.78
8756;BME280;4414;42.670;23.228;2022-08-03T04:42:05;44868.16;;;-137.01;77.53
8756;BME280;4414;42.670;23.228;2022-08-03T04:44:35;44883.47;;;-137.01;74.16
8756;BME280;4414;42.670;23.228;2022-08-03T04:47:04;44875.81;;;-137.01;71.36
8756;BME280;4414;42.670;23.228;2022-08-03T04:49:32;44891.13;;;-137.01;68.14
8756;BME280;4414;42.670;23.228;2022-08-03T04:52:00;44872.00;;;-137.01;69.03
8756;BME280;4414;42.670;23.228;2022-08-03T04:54:27;44891.13;;;-137.01;67.30
8756;BME280;4414;42.670;23.228;2022-08-03T04:56:53;44894.94;;;-137.01;68.14
8756;BME280;4414;42.670;23.228;2022-08-03T04:59:20;44885.38;;;-137.01;68.92
8756;BME280;4414;42.670;23.228;2022-08-03T05:01:47;44906.41;;;-137.01;68.14
8756;BME280;4414;42.670;23.228;2022-08-03T05:04:15;44868.16;;;-137.01;69.14
8756;BME280;4414;42.670;23.228;2022-08-03T05:06:42;44883.47;;;-137.01;69.92
8756;BME280;4414;42.670;23.228;2022-08-03T05:09:09;44891.13;;;-137.01;69.80
8756;BME280;4414;42.670;23.228;2022-08-03T05:11:36;44872.00;;;-137.01;70.89
8756;BME280;4414;42.670;23.228;2022-08-03T05:14:03;44906.41;;;-137.01;72.04
8756;BME280;4414;42.670;23.228;2022-08-03T05:16:30;44885.38;;;-137.01;70.04
8756;BME280;4414;42.670;23.228;2022-08-03T05:18:57;44898.75;;;-137.01;69.63
8756;BME280;4414;42.670;23.228;2022-08-03T05:21:25;44862.44;;;-137.01;70.47
8756;BME280;4414;42.670;23.228;2022-08-03T05:23:51;44881.56;;;-137.01;71.40
8756;BME280;4414;42.670;23.228;2022-08-03T05:26:18;44910.25;;;-137.01;71.02
8756;BME280;4414;42.670;23.228;2022-08-03T05:28:45;44902.59;;;-137.01;71.84
8756;BME280;4414;42.670;23.228;2022-08-03T05:31:11;44868.16;;;-137.01;72.50
8756;BME280;4414;42.670;23.228;2022-08-03T05:33:38;44875.81;;;-137.01;71.92
8756;BME280;4414;42.670;23.228;2022-08-03T05:36:05;44870.06;;;-137.01;72.76
8756;BME280;4414;42.670;23.228;2022-08-03T05:38:33;44885.38;;;-137.01;71.71
8756;BME280;4414;42.670;23.228;2022-08-03T05:41:01;44902.59;;;-137.01;72.18
8756;BME280;4414;42.670;23.228;2022-08-03T05:43:27;44873.91;;;-137.01;73.13
8756;BME280;4414;42.670;23.228;2022-08-03T05:45:56;44858.59;;;-137.01;72.79
8756;BME280;4414;42.670;23.228;2022-08-03T05:48:23;44864.34;;;-137.01;71.72
8756;BME280;4414;42.670;23.228;2022-08-03T05:50:50;44906.41;;;-137.01;71.04
8756;BME280;4414;42.670;23.228;2022-08-03T05:53:17;44879.63;;;-137.01;70.15
8756;BME280;4414;42.670;23.228;2022-08-03T05:55:45;44891.13;;;-137.01;68.69
8756;BME280;4414;42.670;23.228;2022-08-03T05:58:12;44889.19;;;-137.01;69.42
8756;BME280;4414;42.670;23.228;2022-08-03T06:00:38;44894.94;;;-137.01;69.39
8756;BME280;4414;42.670;23.228;2022-08-03T06:03:05;44887.28;;;-137.01;69.64
8756;BME280;4414;42.670;23.228;2022-08-03T06:05:32;44875.81;;;-137.01;70.45
8756;BME280;4414;42.670;23.228;2022-08-03T06:08:00;44893.03;;;-137.01;69.75
8756;BME280;4414;42.670;23.228;2022-08-03T06:10:27;44887.28;;;-137.01;70.32
8756;BME280;4414;42.670;23.228;2022-08-03T06:12:55;44894.94;;;-137.01;69.26
8756;BME280;4414;42.670;23.228;2022-08-03T06:15:22;44856.69;;;-137.01;69.50
8756;BME280;4414;42.670;23.228;2022-08-03T06:17:50;44898.75;;;-137.01;68.49
8756;BME280;4414;42.670;23.228;2022-08-03T06:20:18;44894.94;;;-137.01;66.42
8756;BME280;4414;42.670;23.228;2022-08-03T06:22:45;44917.91;;;-137.01;65.89
8756;BME280;4414;42.670;23.228;2022-08-03T06:25:12;44877.72;;;-137.01;65.84
8756;BME280;4414;42.670;23.228;2022-08-03T06:27:41;44908.34;;;-137.01;66.38
8756;BME280;4414;42.670;23.228;2022-08-03T06:30:10;44902.59;;;-137.01;67.54
8756;BME280;4414;42.670;23.228;2022-08-03T06:32:38;44908.34;;;-137.01;63.85
8756;BME280;4414;42.670;23.228;2022-08-03T06:35:05;44898.75;;;-137.01;60.94
8756;BME280;4414;42.670;23.228;2022-08-03T06:37:41;44900.69;;;-137.01;61.14
8756;BME280;4414;42.670;23.228;2022-08-03T06:40:09;44902.59;;;-137.01;62.72
8756;BME280;4414;42.670;23.228;2022-08-03T06:42:36;44891.13;;;-137.01;62.69
8756;BME280;4414;42.670;23.228;2022-08-03T06:45:04;44870.06;;;-137.01;59.54
8756;BME280;4414;42.670;23.228;2022-08-03T06:47:33;44923.63;;;-137.01;62.06
8756;BME280;4414;42.670;23.228;2022-08-03T06:49:59;44883.47;;;-137.01;61.86
8756;BME280;4414;42.670;23.228;2022-08-03T06:52:26;44894.94;;;-137.01;61.55
8756;BME280;4414;42.670;23.228;2022-08-03T06:54:53;44893.03;;;-137.01;61.20
8756;BME280;4414;42.670;23.228;2022-08-03T06:57:20;44898.75;;;-137.01;62.95
8756;BME280;4414;42.670;23.228;2022-08-03T06:59:46;44912.16;;;-137.01;60.00
8756;BME280;4414;42.670;23.228;2022-08-03T07:02:13;44925.53;;;-137.01;61.63
8756;BME280;4414;42.670;23.228;2022-08-03T07:04:41;44885.38;;;-137.01;60.06
8756;BME280;4414;42.670;23.228;2022-08-03T07:07:08;44891.13;;;-137.01;61.11
8756;BME280;4414;42.670;23.228;2022-08-03T07:09:35;44896.84;;;-137.01;60.85
8756;BME280;4414;42.670;23.228;2022-08-03T07:12:02;44929.38;;;-137.01;62.43
8756;BME280;4414;42.670;23.228;2022-08-03T07:14:30;44902.59;;;-137.01;61.85
8756;BME280;4414;42.670;23.228;2022-08-03T07:16:58;44910.25;;;-137.01;59.10
8756;BME280;4414;42.670;23.228;2022-08-03T07:19:24;44912.16;;;-137.01;61.42
8756;BME280;4414;42.670;23.228;2022-08-03T07:21:52;44917.91;;;-137.01;60.25
8756;BME280;4414;42.670;23.228;2022-08-03T07:24:19;44902.59;;;-137.01;61.38
8756;BME280;4414;42.670;23.228;2022-08-03T07:26:46;44900.69;;;-137.01;60.14
8756;BME280;4414;42.670;23.228;2022-08-03T07:29:13;44921.72;;;-137.01;61.08
8756;BME280;4414;42.670;23.228;2022-08-03T07:31:40;44919.81;;;-137.01;58.97
8756;BME280;4414;42.670;23.228;2022-08-03T07:34:07;44893.03;;;-137.01;59.49
8756;BME280;4414;42.670;23.228;2022-08-03T07:36:34;44921.72;;;-137.01;58.39
8756;BME280;4414;42.670;23.228;2022-08-03T07:39:02;44929.38;;;-137.01;56.85
8756;BME280;4414;42.670;23.228;2022-08-03T07:41:29;44898.75;;;-137.01;59.13
8756;BME280;4414;42.670;23.228;2022-08-03T07:43:56;44917.91;;;-137.01;57.84
8756;BME280;4414;42.670;23.228;2022-08-03T07:46:23;44902.59;;;-137.01;57.60
8756;BME280;4414;42.670;23.228;2022-08-03T07:48:50;44917.91;;;-137.01;55.77
8756;BME280;4414;42.670;23.228;2022-08-03T07:51:17;44908.34;;;-137.01;57.10
8756;BME280;4414;42.670;23.228;2022-08-03T07:53:44;44914.06;;;-137.01;56.49
8756;BME280;4414;42.670;23.228;2022-08-03T07:56:12;44942.75;;;-137.01;54.63
8756;BME280;4414;42.670;23.228;2022-08-03T07:58:39;44927.47;;;-137.01;51.86
8756;BME280;4414;42.670;23.228;2022-08-03T08:01:05;44933.19;;;-137.01;51.81
8756;BME280;4414;42.670;23.228;2022-08-03T08:03:32;44933.19;;;-137.01;50.02
8756;BME280;4414;42.670;23.228;2022-08-03T08:05:59;44931.28;;;-137.01;52.90
8756;BME280;4414;42.670;23.228;2022-08-03T08:08:25;44912.16;;;-137.01;50.86
8756;BME280;4414;42.670;23.228;2022-08-03T08:10:52;44937.03;;;-137.01;52.78
8756;BME280;4414;42.670;23.228;2022-08-03T08:13:20;44942.75;;;-137.01;53.13
8756;BME280;4414;42.670;23.228;2022-08-03T08:15:47;44959.97;;;-137.01;50.84
8756;BME280;4414;42.670;23.228;2022-08-03T08:18:14;44958.06;;;-137.01;49.70
8756;BME280;4414;42.670;23.228;2022-08-03T08:20:40;44958.06;;;-137.01;49.93
8756;BME280;4414;42.670;23.228;2022-08-03T08:23:07;44940.84;;;-137.01;47.85
8756;BME280;4414;42.670;23.228;2022-08-03T08:25:34;44954.25;;;-137.01;47.76
8756;BME280;4414;42.670;23.228;2022-08-03T08:28:01;44977.19;;;-137.01;49.56
8756;BME280;4414;42.670;23.228;2022-08-03T08:30:31;44944.66;;;-137.01;48.06
8756;BME280;4414;42.670;23.228;2022-08-03T08:32:58;44965.72;;;-137.01;48.15
8756;BME280;4414;42.670;23.228;2022-08-03T08:35:25;44948.50;;;-137.01;49.27
8756;BME280;4414;42.670;23.228;2022-08-03T08:37:52;44931.28;;;-137.01;48.56
8756;BME280;4414;42.670;23.228;2022-08-03T08:40:20;44944.66;;;-137.01;48.65
8756;BME280;4414;42.670;23.228;2022-08-03T08:42:48;44952.31;;;-137.01;48.12
8756;BME280;4414;42.670;23.228;2022-08-03T08:45:15;44940.84;;;-137.01;45.39
8756;BME280;4414;42.670;23.228;2022-08-03T08:47:47;44984.84;;;-137.01;45.68
8756;BME280;4414;42.670;23.228;2022-08-03T08:50:17;44954.25;;;-137.01;46.37
8756;BME280;4414;42.670;23.228;2022-08-03T08:52:46;44979.09;;;-137.01;47.45
8756;BME280;4414;42.670;23.228;2022-08-03T08:55:18;44963.81;;;-137.01;48.41
8756;BME280;4414;42.670;23.228;2022-08-03T08:57:48;44971.44;;;-137.01;49.39
8756;BME280;4414;42.670;23.228;2022-08-03T09:00:17;44975.28;;;-137.01;47.74
8756;BME280;4414;42.670;23.228;2022-08-03T09:02:45;44990.56;;;-137.01;45.62
8756;BME280;4414;42.670;23.228;2022-08-03T09:05:14;44982.94;;;-137.01;47.46
8756;BME280;4414;42.670;23.228;2022-08-03T09:07:41;44967.63;;;-137.01;45.02
8756;BME280;4414;42.670;23.228;2022-08-03T09:10:09;44979.09;;;-137.01;46.71
8756;BME280;4414;42.670;23.228;2022-08-03T09:12:37;44979.09;;;-137.01;46.30
8756;BME280;4414;42.670;23.228;2022-08-03T09:15:19;44984.84;;;-137.01;45.47
8756;BME280;4414;42.670;23.228;2022-08-03T09:17:48;44990.56;;;-137.01;45.57
8756;BME280;4414;42.670;23.228;2022-08-03T09:20:15;44963.81;;;-137.01;45.13
8756;BME280;4414;42.670;23.228;2022-08-03T09:22:54;44971.44;;;-137.01;46.31
8756;BME280;4414;42.670;23.228;2022-08-03T09:25:29;44990.56;;;-137.01;43.26
8756;BME280;4414;42.670;23.228;2022-08-03T09:28:04;44994.41;;;-137.01;44.40
8756;BME280;4414;42.670;23.228;2022-08-03T09:30:32;44994.41;;;-137.01;43.79
8756;BME280;4414;42.670;23.228;2022-08-03T09:33:00;44994.41;;;-137.01;42.55
8756;BME280;4414;42.670;23.228;2022-08-03T09:35:28;45007.78;;;-137.01;42.64
8756;BME280;4414;42.670;23.228;2022-08-03T09:38:12;44979.09;;;-137.01;43.81
8756;BME280;4414;42.670;23.228;2022-08-03T09:40:40;45005.88;;;-137.01;42.70
8756;BME280;4414;42.670;23.228;2022-08-03T09:43:07;44982.94;;;-137.01;43.81
8756;BME280;4414;42.670;23.228;2022-08-03T09:45:35;45005.88;;;-137.01;41.95
8756;BME280;4414;42.670;23.228;2022-08-03T09:48:24;45002.06;;;-137.01;42.41
8756;BME280;4414;42.670;23.228;2022-08-03T09:50:51;45005.88;;;-137.01;42.08
8756;BME280;4414;42.670;23.228;2022-08-03T09:53:19;45002.06;;;-137.01;43.75
8756;BME280;4414;42.670;23.228;2022-08-03T09:55:50;45032.66;;;-137.01;44.27
8756;BME280;4414;42.670;23.228;2022-08-03T09:58:19;45000.13;;;-137.01;41.83
8756;BME280;4414;42.670;23.228;2022-08-03T10:00:57;45002.06;;;-137.01;39.98
8756;BME280;4414;42.670;23.228;2022-08-03T10:03:27;45023.09;;;-137.01;40.93
8756;BME280;4414;42.670;23.228;2022-08-03T10:05:54;45013.53;;;-137.01;41.06
8756;BME280;4414;42.670;23.228;2022-08-03T10:08:22;45003.97;;;-137.01;40.14
8756;BME280;4414;42.670;23.228;2022-08-03T10:10:50;44981.00;;;-137.01;40.03
8756;BME280;4414;42.670;23.228;2022-08-03T10:13:19;45013.53;;;-137.01;38.91
8756;BME280;4414;42.670;23.228;2022-08-03T10:15:46;45036.47;;;-137.01;39.05
8756;BME280;4414;42.670;23.228;2022-08-03T10:18:13;45013.53;;;-137.01;40.88
8756;BME280;4414;42.670;23.228;2022-08-03T10:20:44;45019.28;;;-137.01;40.32
8756;BME280;4414;42.670;23.228;2022-08-03T10:23:12;45013.53;;;-137.01;40.42
8756;BME280;4414;42.670;23.228;2022-08-03T10:25:40;45028.84;;;-137.01;39.72
8756;BME280;4414;42.670;23.228;2022-08-03T10:28:12;45003.97;;;-137.01;39.98
8756;BME280;4414;42.670;23.228;2022-08-03T10:30:43;45025.00;;;-137.01;39.03
8756;BME280;4414;42.670;23.228;2022-08-03T10:33:16;45011.63;;;-137.01;41.46
8756;BME280;4414;42.670;23.228;2022-08-03T10:35:47;45038.41;;;-137.01;40.10
8756;BME280;4414;42.670;23.228;2022-08-03T10:38:18;45040.31;;;-137.01;40.60
8756;BME280;4414;42.670;23.228;2022-08-03T10:40:48;45005.88;;;-137.01;39.48
8756;BME280;4414;42.670;23.228;2022-08-03T10:43:19;45015.44;;;-137.01;39.92
8756;BME280;4414;42.670;23.228;2022-08-03T10:45:47;45036.47;;;-137.01;39.08
8756;BME280;4414;42.670;23.228;2022-08-03T10:48:15;45002.06;;;-137.01;39.54
8756;BME280;4414;42.670;23.228;2022-08-03T10:50:43;45046.06;;;-137.01;38.80
8756;BME280;4414;42.670;23.228;2022-08-03T10:53:12;45025.00;;;-137.01;39.93
8756;BME280;4414;42.670;23.228;2022-08-03T10:55:39;45011.63;;;-137.01;40.21
8756;BME280;4414;42.670;23.228;2022-08-03T10:58:46;45007.78;;;-137.01;39.11
8756;BME280;4414;42.670;23.228;2022-08-03T11:01:14;45038.41;;;-137.01;39.88
8756;BME280;4414;42.670;23.228;2022-08-03T11:04:14;45019.28;;;-137.01;40.90
8756;BME280;4414;42.670;23.228;2022-08-03T11:06:43;45011.63;;;-137.01;39.54
8756;BME280;4414;42.670;23.228;2022-08-03T11:09:16;45023.09;;;-137.01;38.69
8756;BME280;4414;42.670;23.228;2022-08-03T11:11:45;45030.75;;;-137.01;38.28
8756;BME280;4414;42.670;23.228;2022-08-03T11:14:13;45013.53;;;-137.01;37.50
8756;BME280;4414;42.670;23.228;2022-08-03T11:16:43;45011.63;;;-137.01;38.80
8756;BME280;4414;42.670;23.228;2022-08-03T11:19:13;45032.66;;;-137.01;40.04
8756;BME280;4414;42.670;23.228;2022-08-03T11:21:57;45013.53;;;-137.01;39.41
8756;BME280;4414;42.670;23.228;2022-08-03T11:25:02;45046.06;;;-137.01;39.37
8756;BME280;4414;42.670;23.228;2022-08-03T11:27:30;45028.84;;;-137.01;40.58
8756;BME280;4414;42.670;23.228;2022-08-03T11:30:00;45036.47;;;-137.01;38.98
8756;BME280;4414;42.670;23.228;2022-08-03T11:32:52;45025.00;;;-137.01;40.16
8756;BME280;4414;42.670;23.228;2022-08-03T11:35:21;45040.31;;;-137.01;39.19
8756;BME280;4414;42.670;23.228;2022-08-03T11:38:03;45019.28;;;-137.01;39.28
8756;BME280;4414;42.670;23.228;2022-08-03T11:40:37;45017.34;;;-137.01;38.65
8756;BME280;4414;42.670;23.228;2022-08-03T11:43:05;44998.22;;;-137.01;39.69
8756;BME280;4414;42.670;23.228;2022-08-03T11:45:32;45017.34;;;-137.01;39.13
8756;BME280;4414;42.670;23.228;2022-08-03T11:48:11;45015.44;;;-137.01;38.94
8756;BME280;4414;42.670;23.228;2022-08-03T11:50:38;45003.97;;;-137.01;39.52
8756;BME280;4414;42.670;23.228;2022-08-03T11:53:05;45015.44;;;-137.01;40.00
8756;BME280;4414;42.670;23.228;2022-08-03T11:55:35;45032.66;;;-137.01;37.82
8756;BME280;4414;42.670;23.228;2022-08-03T11:58:04;45051.78;;;-137.01;38.33
8756;BME280;4414;42.670;23.228;2022-08-03T12:00:31;45040.31;;;-137.01;39.18
8756;BME280;4414;42.670;23.228;2022-08-03T12:03:00;45042.22;;;-137.01;38.25
8756;BME280;4414;42.670;23.228;2022-08-03T12:05:42;45051.78;;;-137.01;39.03
8756;BME280;4414;42.670;23.228;2022-08-03T12:08:10;45028.84;;;-137.01;40.20
8756;BME280;4414;42.670;23.228;2022-08-03T12:10:44;45032.66;;;-137.01;39.17
8756;BME280;4414;42.670;23.228;2022-08-03T12:13:12;45044.13;;;-137.01;39.21
8756;BME280;4414;42.670;23.228;2022-08-03T12:15:40;45021.19;;;-137.01;38.26
8756;BME280;4414;42.670;23.228;2022-08-03T12:18:14;45007.78;;;-137.01;38.58
8756;BME280;4414;42.670;23.228;2022-08-03T12:20:42;45013.53;;;-137.01;39.96
8756;BME280;4414;42.670;23.228;2022-08-03T12:23:10;45044.13;;;-137.01;39.86
8756;BME280;4414;42.670;23.228;2022-08-03T12:25:40;45002.06;;;-137.01;40.88
8756;BME280;4414;42.670;23.228;2022-08-03T12:28:09;45017.34;;;-137.01;41.13
8756;BME280;4414;42.670;23.228;2022-08-03T12:30:37;44994.41;;;-137.01;41.63
8756;BME280;4414;42.670;23.228;2022-08-03T12:33:22;45013.53;;;-137.01;42.81
8756;BME280;4414;42.670;23.228;2022-08-03T12:36:00;45013.53;;;-137.01;41.87
8756;BME280;4414;42.670;23.228;2022-08-03T12:38:29;45000.13;;;-137.01;42.70
8756;BME280;4414;42.670;23.228;2022-08-03T12:40:59;44992.50;;;-137.01;41.75
8756;BME280;4414;42.670;23.228;2022-08-03T12:43:26;44979.09;;;-137.01;42.07
8756;BME280;4414;42.670;23.228;2022-08-03T12:46:13;44971.44;;;-137.01;42.12
8756;BME280;4414;42.670;23.228;2022-08-03T12:49:01;44990.56;;;-137.01;41.88
8756;BME280;4414;42.670;23.228;2022-08-03T12:51:30;44990.56;;;-137.01;42.38
8756;BME280;4414;42.670;23.228;2022-08-03T12:53:57;44992.50;;;-137.01;43.61
8756;BME280;4414;42.670;23.228;2022-08-03T12:56:26;44977.19;;;-137.01;43.91
8756;BME280;4414;42.670;23.228;2022-08-03T12:58:52;44986.75;;;-137.01;43.99
8756;BME280;4414;42.670;23.228;2022-08-03T13:01:20;45000.13;;;-137.01;43.17
8756;BME280;4414;42.670;23.228;2022-08-03T13:03:50;44990.56;;;-137.01;43.71
8756;BME280;4414;42.670;23.228;2022-08-03T13:06:18;44984.84;;;-137.01;42.55